Embarrass, WI (54933)

3:14 AM CST on January 29, 2015 (GMT -0600)
Clintonville Municipal | Change Station
CLOSE
Current Station
Airport
Location: Clintonville,
Elevation: 823 ft
Nearby Weather Stations
Active Advisory: Freezing Rain Advisory

Elev 823 ft 44.62 °N, 88.73 °W | Updated 19 minutes ago

Overcast
Overcast
30 °F
Feels Like 30 °F
N
0
Wind Variable Wind from North

Today
High -- | Low -- °F
--% Chance of Precip.
Yesterday
High -- | Low -- °F
Precip. -- in
7:17 AM 4:59 PM
Waxing Gibbous, 72% visible
Pressure 29.78 in
Visibility 7.0 miles
Clouds Scattered Clouds 1300 ft
Overcast 2300 ft
Dew Point 25 °F
Humidity 80%
Rainfall 0.00 in
Snow Depth Not available.
UV 0 out of 12
Pollen .10 out of 12
Air Quality Not available.
Flu Activity Not available.
METAR KCLI 290855Z AUTO 00000KT 7SM SCT013 OVC023 M01/M04 A2978 RMK AO2

More Conditions Fewer Conditions

Pressure 29.78 in
Visibility 7.0 miles
Clouds Scattered Clouds 1300 ft
Overcast 2300 ft
Dew Point 25 °F
Humidity 80%
Rainfall 0.00 in
Snow Depth Not available.
UV 0 out of 12
Pollen .10 out of 12
Air Quality Not available.
Flu Activity Not available.
METAR KCLI 290855Z AUTO 00000KT 7SM SCT013 OVC023 M01/M04 A2978 RMK AO2

More Conditions Fewer Conditions

10-Day Weather Forecast

Almanac

Astronomy

Jan. 29, 2015 Rise Set
Actual Time
Civil Twilight
Nautical Twilight
Astronomical Twilight
Moon
Length of Visible Light
Length of Day
Tomorrow will be .
, % of the Moon is Illuminated

Today's Extremes

State Highs State Lows

Community

WunderPhotos

Upload Photos

1,791,389 photos uploaded!

WunderBlogs® & News

Nearby

Air Quality

  Air Quality AQ Index Pollutant
Not available.

Snow Depth

Station Depth Elevation

Earthquake Activity

City Distance Mag. Time & Date
Minimum magnitude displayed is 2.5.

Coastal Water Temperatures

Place Temperature

Nearby Weather Stations